Boyarka, Ukraine
Current Conditions -  °F | °C
As of 2:00 PM on Monday 20 Oct 2014 (Local Time) from UKKK Reporting Station
Rain Showers Rain Showers  
Wind Chill: 61°   Ceiling: 4000
Heat Index: 61°   Visibility: 6mi
Dew Point: 50°   Wind: 18mph
Humidity: 68%   Direction: 260°W
Pressure: 29.71"   Gusts: NA
Location:  50.32°N, 30.32°E
Report Text: UKKK 201100Z 26008MPS 9999 -SHRA SCT029CB BKN040 16/10 Q1006 26CLRD70 TEMPO 27014G19MPS 2400 -SHRA BKN012CB
Loading
Personal Weather Stations






























Interactive Weather Map
Tropical Storm Tracking
New forecast layout! Learn more

10-Day Weather Forecast

Advertisements
Track Severe Weather on mobile